createdAt,value
2022-09-01T00:00:03.458Z,13.70
2022-09-01T00:02:34.700Z,13.80
2022-09-01T00:05:04.624Z,13.80
2022-09-01T00:07:32.048Z,13.80
2022-09-01T00:10:00.289Z,13.90
2022-09-01T00:12:28.094Z,13.90
2022-09-01T00:14:55.384Z,14.00
2022-09-01T00:17:22.304Z,14.10
2022-09-01T00:19:50.310Z,14.10
2022-09-01T00:22:17.141Z,14.30
2022-09-01T00:24:45.923Z,14.30
2022-09-01T00:27:12.912Z,14.30
2022-09-01T00:29:43.272Z,14.40
2022-09-01T00:32:11.652Z,14.40
2022-09-01T00:34:38.686Z,14.50
2022-09-01T00:37:05.507Z,14.50
2022-09-01T00:39:32.387Z,14.60
2022-09-01T00:41:59.619Z,14.60
2022-09-01T00:44:29.501Z,14.70
2022-09-01T00:46:58.074Z,14.70
2022-09-01T00:49:41.675Z,14.70
2022-09-01T00:52:14.145Z,14.90
2022-09-01T00:54:45.655Z,14.90
2022-09-01T00:57:14.362Z,14.90
2022-09-01T00:59:50.116Z,14.90
2022-09-01T01:02:17.210Z,15.00
2022-09-01T01:04:46.916Z,15.00
2022-09-01T01:07:15.677Z,15.10
2022-09-01T01:09:48.678Z,15.10
2022-09-01T01:12:18.666Z,15.10
2022-09-01T01:14:50.977Z,15.10
2022-09-01T01:17:21.687Z,15.10
2022-09-01T01:20:15.318Z,15.10
2022-09-01T01:23:02.674Z,15.10
2022-09-01T01:25:53.409Z,15.10
2022-09-01T01:28:32.426Z,15.10
2022-09-01T01:31:11.912Z,15.10
2022-09-01T01:33:51.558Z,15.10
2022-09-01T01:36:33.549Z,15.10
2022-09-01T01:39:03.852Z,15.10
2022-09-01T01:41:35.535Z,15.10
2022-09-01T01:44:07.180Z,15.10
2022-09-01T01:46:36.763Z,15.10
2022-09-01T01:49:06.161Z,15.00
2022-09-01T01:51:34.349Z,15.00
2022-09-01T01:54:04.222Z,15.00
2022-09-01T01:56:32.889Z,15.00
2022-09-01T01:59:01.993Z,15.00
2022-09-01T02:01:32.116Z,15.00
2022-09-01T02:04:01.233Z,15.00
2022-09-01T02:06:30.044Z,15.00
2022-09-01T02:09:00.105Z,15.00
2022-09-01T02:11:28.163Z,15.00
2022-09-01T02:13:58.371Z,15.00
2022-09-01T02:16:32.788Z,15.00
2022-09-01T02:19:03.252Z,14.90
2022-09-01T02:21:30.336Z,14.90
2022-09-01T02:24:01.122Z,14.80
2022-09-01T02:26:38.614Z,14.80
2022-09-01T02:29:10.149Z,14.80
2022-09-01T02:31:41.734Z,14.70
2022-09-01T02:34:10.831Z,14.70
2022-09-01T02:36:44.276Z,14.60
2022-09-01T02:39:15.266Z,14.60
2022-09-01T02:41:42.218Z,14.60
2022-09-01T02:44:11.831Z,14.60
2022-09-01T02:46:43.576Z,14.50
2022-09-01T02:49:24.809Z,14.50
2022-09-01T02:51:57.983Z,14.40
2022-09-01T02:54:25.891Z,14.40
2022-09-01T02:56:56.865Z,14.40
2022-09-01T02:59:28.810Z,14.30
2022-09-01T03:01:58.979Z,14.30
2022-09-01T03:04:27.298Z,14.30
2022-09-01T03:06:54.900Z,14.30
2022-09-01T03:09:22.980Z,14.30
2022-09-01T03:11:52.763Z,14.20
2022-09-01T03:14:21.461Z,14.30
2022-09-01T03:16:48.605Z,14.30
2022-09-01T03:19:16.695Z,14.30
2022-09-01T03:21:45.350Z,14.30
2022-09-01T03:24:17.949Z,14.30
2022-09-01T03:26:49.938Z,14.30
2022-09-01T03:29:18.988Z,14.30
2022-09-01T03:31:46.913Z,14.30
2022-09-01T03:34:16.646Z,14.30
2022-09-01T03:36:52.014Z,14.20
2022-09-01T03:39:26.171Z,14.20
2022-09-01T03:41:53.725Z,14.10
2022-09-01T03:44:29.709Z,14.10
2022-09-01T03:46:59.515Z,14.10
2022-09-01T03:49:28.564Z,14.00
2022-09-01T03:51:58.321Z,14.00
2022-09-01T03:54:30.545Z,13.90
2022-09-01T03:57:00.358Z,13.80
2022-09-01T03:59:31.666Z,13.80
2022-09-01T04:02:02.843Z,13.80
2022-09-01T04:04:33.099Z,13.70
2022-09-01T04:07:00.691Z,13.60
2022-09-01T04:09:28.548Z,13.60
2022-09-01T04:11:55.595Z,13.50
2022-09-01T04:14:27.526Z,13.40
2022-09-01T04:17:15.601Z,13.40
2022-09-01T04:19:43.317Z,13.30
2022-09-01T04:22:14.299Z,13.20
2022-09-01T04:24:49.504Z,13.10
2022-09-01T04:27:18.527Z,13.10
2022-09-01T04:29:46.770Z,13.00
2022-09-01T04:32:14.905Z,12.90
2022-09-01T04:34:45.101Z,12.80
2022-09-01T04:37:22.414Z,12.80
2022-09-01T04:39:58.933Z,12.70
2022-09-01T04:42:29.921Z,12.70
2022-09-01T04:45:02.469Z,12.70
2022-09-01T04:47:42.488Z,12.70
2022-09-01T04:50:17.721Z,12.60
2022-09-01T04:53:06.185Z,12.50
2022-09-01T04:55:43.573Z,12.40
2022-09-01T04:58:13.810Z,12.40
2022-09-01T05:00:43.901Z,12.30
2022-09-01T05:03:11.721Z,12.30
2022-09-01T05:05:54.235Z,12.30
2022-09-01T05:08:24.238Z,12.40
2022-09-01T05:10:55.893Z,12.40
2022-09-01T05:13:45.578Z,12.40
2022-09-01T05:16:24.101Z,12.40
2022-09-01T05:18:55.761Z,12.50
2022-09-01T05:21:28.174Z,12.60
2022-09-01T05:23:58.016Z,12.60
2022-09-01T05:26:28.340Z,12.60
2022-09-01T05:28:58.895Z,12.70
2022-09-01T05:31:35.213Z,12.80
2022-09-01T05:34:03.250Z,12.90
2022-09-01T05:36:34.150Z,13.00
2022-09-01T05:39:04.163Z,13.10
2022-09-01T05:41:31.147Z,13.20
2022-09-01T05:44:00.891Z,13.30
2022-09-01T05:46:30.167Z,13.30
2022-09-01T05:49:03.612Z,13.40
2022-09-01T05:51:44.382Z,13.50
2022-09-01T05:54:22.440Z,13.50
2022-09-01T05:56:50.345Z,13.60
2022-09-01T05:59:24.706Z,13.60
2022-09-01T06:01:54.542Z,13.70
2022-09-01T06:04:24.717Z,13.70
2022-09-01T06:07:05.333Z,13.80
2022-09-01T06:09:42.966Z,13.90
2022-09-01T06:12:18.962Z,14.00
2022-09-01T06:14:48.551Z,14.00
2022-09-01T06:17:24.910Z,14.10
2022-09-01T06:19:55.956Z,14.10
2022-09-01T06:22:25.506Z,14.20
2022-09-01T06:25:01.801Z,14.30
2022-09-01T06:27:38.679Z,14.40
2022-09-01T06:30:14.830Z,14.40
2022-09-01T06:32:49.877Z,14.50
2022-09-01T06:35:18.536Z,14.60
2022-09-01T06:37:47.187Z,14.70
2022-09-01T06:40:26.638Z,14.70
2022-09-01T06:42:54.240Z,14.80
2022-09-01T06:45:26.111Z,14.90
2022-09-01T06:47:59.437Z,15.00
2022-09-01T06:53:37.316Z,15.10
2022-09-01T06:56:11.059Z,15.20
2022-09-01T06:58:47.259Z,15.30
2022-09-01T07:01:19.490Z,15.40
2022-09-01T07:03:51.155Z,15.40
2022-09-01T07:13:05.434Z,15.60
2022-09-01T07:18:22.487Z,15.80
2022-09-01T07:21:36.574Z,15.90
2022-09-01T07:24:08.080Z,16.00
2022-09-01T07:26:29.292Z,16.00
2022-09-01T07:29:06.156Z,16.10
2022-09-01T07:31:52.085Z,16.10
2022-09-01T07:34:39.375Z,16.20
2022-09-01T07:38:47.460Z,16.30
2022-09-01T07:39:56.651Z,16.40
2022-09-01T07:42:58.961Z,15.50
2022-09-01T07:43:12.933Z,16.40
2022-09-01T07:49:03.294Z,16.50
2022-09-01T07:51:51.382Z,16.60
2022-09-01T07:54:25.151Z,16.80
2022-09-01T07:56:55.499Z,16.80
2022-09-01T07:59:23.513Z,16.90
2022-09-01T08:01:57.341Z,16.90
2022-09-01T08:04:24.883Z,17.00
2022-09-01T08:06:55.181Z,17.00
2022-09-01T08:09:37.845Z,17.00
2022-09-01T08:12:10.426Z,17.10
2022-09-01T08:14:40.227Z,17.20
2022-09-01T08:20:03.206Z,17.30
2022-09-01T08:23:06.335Z,17.40
2022-09-01T08:25:36.389Z,17.50
2022-09-01T08:28:04.779Z,17.50
2022-09-01T08:30:33.461Z,17.50
2022-09-01T08:33:11.206Z,17.60
2022-09-01T08:35:44.246Z,17.60
2022-09-01T08:38:12.075Z,17.60
2022-09-01T08:40:41.255Z,17.60
2022-09-01T08:43:32.307Z,17.70
2022-09-01T08:46:12.663Z,17.60
2022-09-01T08:52:20.272Z,17.80
2022-09-01T08:55:04.513Z,17.90
2022-09-01T08:57:36.849Z,18.00
2022-09-01T09:00:23.311Z,18.10
2022-09-01T09:03:03.199Z,18.20
2022-09-01T09:06:07.934Z,18.30
2022-09-01T09:08:54.909Z,18.20
2022-09-01T09:12:01.808Z,18.20
2022-09-01T09:14:36.585Z,18.30
2022-09-01T09:17:04.403Z,18.40
2022-09-01T09:19:33.861Z,18.50
2022-09-01T09:22:05.067Z,18.50
2022-09-01T09:24:56.318Z,18.70
2022-09-01T09:27:25.271Z,18.70
2022-09-01T09:30:11.339Z,18.70
2022-09-01T09:33:19.940Z,18.70
2022-09-01T09:35:33.280Z,18.60
2022-09-01T09:38:44.865Z,18.70
2022-09-01T09:41:27.137Z,18.80
2022-09-01T09:43:58.404Z,18.80
2022-09-01T09:46:31.999Z,18.80
2022-09-01T09:49:34.816Z,18.80
2022-09-01T09:52:10.879Z,18.90
2022-09-01T09:55:19.865Z,18.90
2022-09-01T09:57:48.198Z,19.00
2022-09-01T10:00:31.066Z,19.00
2022-09-01T10:03:08.705Z,19.00
2022-09-01T10:05:48.659Z,19.00
2022-09-01T10:08:45.637Z,19.10
2022-09-01T10:11:51.644Z,19.20
2022-09-01T10:14:51.645Z,19.30
2022-09-01T10:17:20.601Z,19.40
2022-09-01T10:19:58.291Z,19.40
2022-09-01T10:22:28.950Z,19.40
2022-09-01T10:24:55.771Z,19.40
2022-09-01T10:27:27.284Z,19.60
2022-09-01T10:30:18.174Z,19.70
2022-09-01T10:33:06.850Z,19.50
2022-09-01T10:35:44.426Z,19.60
2022-09-01T10:38:16.542Z,19.80
2022-09-01T10:41:08.833Z,19.90
2022-09-01T10:43:49.446Z,20.00
2022-09-01T10:46:38.532Z,20.40
2022-09-01T10:49:33.677Z,20.60
2022-09-01T10:52:07.578Z,20.90
2022-09-01T10:54:58.268Z,20.90
2022-09-01T10:57:42.855Z,21.00
2022-09-01T11:00:41.436Z,21.20
2022-09-01T11:06:12.888Z,20.70
2022-09-01T11:08:56.270Z,20.70
2022-09-01T11:11:44.230Z,21.10
2022-09-01T11:14:23.594Z,21.30
2022-09-01T11:17:12.576Z,21.10
2022-09-01T11:19:45.090Z,21.00
2022-09-01T11:22:21.154Z,20.80
2022-09-01T11:24:57.906Z,20.80
2022-09-01T11:27:48.973Z,20.90
2022-09-01T11:30:22.400Z,20.90
2022-09-01T11:33:03.806Z,21.10
2022-09-01T11:35:34.124Z,21.30
2022-09-01T11:38:05.718Z,21.60
2022-09-01T11:40:35.533Z,21.60
2022-09-01T11:43:12.593Z,21.40
2022-09-01T11:46:20.783Z,21.60
2022-09-01T11:48:54.914Z,22.20
2022-09-01T11:51:21.687Z,22.70
2022-09-01T11:54:01.068Z,22.90
2022-09-01T11:56:28.757Z,22.90
2022-09-01T11:58:55.577Z,22.70
2022-09-01T12:01:40.944Z,22.40
2022-09-01T12:04:25.745Z,22.40
2022-09-01T12:06:57.080Z,22.70
2022-09-01T12:09:45.717Z,22.70
2022-09-01T12:12:33.519Z,23.10
2022-09-01T12:15:06.490Z,23.50
2022-09-01T12:17:35.265Z,24.10
2022-09-01T12:20:25.517Z,24.80
2022-09-01T12:22:58.014Z,25.60
2022-09-01T12:25:30.618Z,25.20
2022-09-01T12:27:59.419Z,24.30
2022-09-01T12:30:27.131Z,24.10
2022-09-01T12:35:47.547Z,26.30
2022-09-01T12:38:21.011Z,27.30
2022-09-01T12:40:54.221Z,27.40
2022-09-01T12:43:30.134Z,26.50
2022-09-01T12:45:59.964Z,25.30
2022-09-01T12:48:36.755Z,24.60
2022-09-01T12:51:26.570Z,24.80
2022-09-01T12:53:58.615Z,26.80
2022-09-01T12:56:33.465Z,27.30
2022-09-01T12:59:25.098Z,28.00
2022-09-01T13:02:36.762Z,29.00
2022-09-01T13:05:18.803Z,28.90
2022-09-01T13:07:45.963Z,28.80
2022-09-01T13:10:12.926Z,28.10
2022-09-01T13:12:44.606Z,27.60
2022-09-01T13:15:15.702Z,26.70
2022-09-01T13:17:43.722Z,25.50
2022-09-01T13:20:13.629Z,24.60
2022-09-01T13:22:44.747Z,25.20
2022-09-01T13:25:18.645Z,27.10
2022-09-01T13:27:50.021Z,27.90
2022-09-01T13:30:28.416Z,29.50
2022-09-01T13:35:43.361Z,28.80
2022-09-01T13:38:10.701Z,27.60
2022-09-01T13:40:37.592Z,26.00
2022-09-01T13:43:06.204Z,24.80
2022-09-01T13:45:33.716Z,24.10
2022-09-01T13:48:17.262Z,24.00
2022-09-01T13:53:33.898Z,26.50
2022-09-01T13:56:01.772Z,26.20
2022-09-01T13:58:28.631Z,27.50
2022-09-01T14:00:59.844Z,28.80
2022-09-01T14:03:27.572Z,30.20
2022-09-01T14:05:55.080Z,30.80
2022-09-01T14:08:24.906Z,30.50
2022-09-01T14:10:53.748Z,29.70
2022-09-01T14:13:23.521Z,27.90
2022-09-01T14:15:52.035Z,28.10
2022-09-01T14:18:22.376Z,29.10
2022-09-01T14:20:51.612Z,29.80
2022-09-01T14:23:19.533Z,30.30
2022-09-01T14:25:49.955Z,30.50
2022-09-01T14:28:20.139Z,31.00
2022-09-01T14:30:47.889Z,31.90
2022-09-01T14:33:15.167Z,31.60
2022-09-01T14:35:46.566Z,31.80
2022-09-01T14:38:14.774Z,32.50
2022-09-01T14:40:43.815Z,32.60
2022-09-01T14:43:14.304Z,32.20
2022-09-01T14:45:47.049Z,30.60
2022-09-01T14:48:18.495Z,31.30
2022-09-01T14:50:48.768Z,31.70
2022-09-01T14:53:15.773Z,31.50
2022-09-01T14:55:44.110Z,31.50
2022-09-01T14:58:14.137Z,31.00
2022-09-01T15:00:42.194Z,30.90
2022-09-01T15:03:10.431Z,31.10
2022-09-01T15:05:40.197Z,31.30
2022-09-01T15:08:13.017Z,31.90
2022-09-01T15:10:43.055Z,32.00
2022-09-01T15:13:13.851Z,31.90
2022-09-01T15:15:41.605Z,31.70
2022-09-01T15:18:11.645Z,31.90
2022-09-01T15:20:45.806Z,31.40
2022-09-01T15:23:13.965Z,31.10
2022-09-01T15:25:41.240Z,31.20
2022-09-01T15:28:08.878Z,31.80
2022-09-01T15:30:36.971Z,31.40
2022-09-01T15:33:04.778Z,31.00
2022-09-01T15:35:32.613Z,30.90
2022-09-01T15:37:59.987Z,30.10
2022-09-01T15:40:28.018Z,30.10
2022-09-01T15:42:56.784Z,29.60
2022-09-01T15:45:24.865Z,29.50
2022-09-01T15:47:51.877Z,28.30
2022-09-01T15:50:27.495Z,27.20
2022-09-01T15:52:59.736Z,25.80
2022-09-01T15:55:30.091Z,25.20
2022-09-01T15:57:58.435Z,24.50
2022-09-01T16:00:27.003Z,24.00
2022-09-01T16:02:57.717Z,23.50
2022-09-01T16:05:25.914Z,23.30
2022-09-01T16:07:53.582Z,22.80
2022-09-01T16:10:21.623Z,22.70
2022-09-01T16:12:49.846Z,22.50
2022-09-01T16:15:20.195Z,22.10
2022-09-01T16:18:05.234Z,22.00
2022-09-01T16:20:51.091Z,21.80
2022-09-01T16:23:21.366Z,21.60
2022-09-01T16:25:48.324Z,21.50
2022-09-01T16:28:29.077Z,21.50
2022-09-01T16:31:12.549Z,21.50
2022-09-01T16:33:49.794Z,21.40
2022-09-01T16:36:35.452Z,21.40
2022-09-01T16:39:39.439Z,21.20
2022-09-01T16:42:21.133Z,21.20
2022-09-01T16:45:10.848Z,21.10
2022-09-01T16:47:46.939Z,20.90
2022-09-01T16:51:01.344Z,20.90
2022-09-01T16:53:37.535Z,20.80
2022-09-01T16:56:14.849Z,20.60
2022-09-01T16:59:16.348Z,20.50
2022-09-01T17:02:11.034Z,20.40
2022-09-01T17:04:48.856Z,20.30
2022-09-01T17:07:30.641Z,20.20
2022-09-01T17:10:03.770Z,20.10
2022-09-01T17:12:37.542Z,20.00
2022-09-01T17:15:12.860Z,19.90
2022-09-01T17:18:21.943Z,19.80
2022-09-01T17:20:58.038Z,19.70
2022-09-01T17:23:29.844Z,19.60
2022-09-01T17:26:03.029Z,19.60
2022-09-01T17:28:35.322Z,19.50
2022-09-01T17:31:50.285Z,19.30
2022-09-01T17:34:38.764Z,19.20
2022-09-01T17:37:29.157Z,19.00
2022-09-01T17:39:59.656Z,18.90
2022-09-01T17:42:45.068Z,18.70
2022-09-01T17:45:17.560Z,18.60
2022-09-01T17:48:11.658Z,18.40
2022-09-01T17:50:50.513Z,18.30
2022-09-01T17:53:44.565Z,18.20
2022-09-01T17:56:33.008Z,18.00
2022-09-01T17:59:11.705Z,17.80
2022-09-01T18:01:47.493Z,17.50
2022-09-01T18:04:31.351Z,17.30
2022-09-01T18:07:19.783Z,17.00
2022-09-01T18:09:54.310Z,16.80
2022-09-01T18:12:29.143Z,16.70
2022-09-01T18:15:10.661Z,16.50
2022-09-01T18:17:52.410Z,16.30
2022-09-01T18:20:43.906Z,16.10
2022-09-01T18:23:13.710Z,15.90
2022-09-01T18:25:47.899Z,15.80
2022-09-01T18:28:18.100Z,15.60
2022-09-01T18:30:56.757Z,15.40
2022-09-01T18:33:40.808Z,15.30
2022-09-01T18:36:56.132Z,15.20
2022-09-01T18:39:35.522Z,15.10
2022-09-01T18:42:13.708Z,15.00
2022-09-01T18:45:17.899Z,14.80
2022-09-01T18:48:09.002Z,14.60
2022-09-01T18:50:58.793Z,14.50
2022-09-01T18:53:31.352Z,14.30
2022-09-01T18:56:16.346Z,14.30
2022-09-01T18:58:57.200Z,14.20
2022-09-01T19:01:38.821Z,14.10
2022-09-01T19:04:36.700Z,14.00
2022-09-01T19:07:21.746Z,14.00
2022-09-01T19:10:02.496Z,14.10
2022-09-01T19:12:44.035Z,13.90
2022-09-01T19:15:39.935Z,13.80
2022-09-01T19:18:28.903Z,13.70
2022-09-01T19:21:08.063Z,13.60
2022-09-01T19:23:44.610Z,13.50
2022-09-01T19:26:21.304Z,13.30
2022-09-01T19:29:06.115Z,13.20
2022-09-01T19:31:37.114Z,13.10
2022-09-01T19:34:11.945Z,13.00
2022-09-01T19:36:53.587Z,12.90
2022-09-01T19:39:27.397Z,12.90
2022-09-01T19:42:21.498Z,12.80
2022-09-01T19:45:06.886Z,12.70
2022-09-01T19:47:49.895Z,12.60
2022-09-01T19:50:23.961Z,12.60
2022-09-01T19:53:33.884Z,12.50
2022-09-01T19:56:13.310Z,12.50
2022-09-01T19:59:14.171Z,12.40
2022-09-01T20:02:15.831Z,12.30
2022-09-01T20:04:55.689Z,12.30
2022-09-01T20:07:57.862Z,12.30
2022-09-01T20:10:25.519Z,12.20
2022-09-01T20:13:16.199Z,12.20
2022-09-01T20:15:53.807Z,12.10
2022-09-01T20:18:41.546Z,12.10
2022-09-01T20:21:20.948Z,12.10
2022-09-01T20:23:59.341Z,12.00
2022-09-01T20:26:42.159Z,12.00
2022-09-01T20:29:29.785Z,11.90
2022-09-01T20:31:58.812Z,11.80
2022-09-01T20:34:46.165Z,11.70
2022-09-01T20:37:23.895Z,11.70
2022-09-01T20:40:04.338Z,11.60
2022-09-01T20:43:03.295Z,11.60
2022-09-01T20:45:31.929Z,11.60
2022-09-01T20:48:14.690Z,11.60
2022-09-01T20:50:54.409Z,11.50
2022-09-01T20:53:54.693Z,11.40
2022-09-01T20:56:24.654Z,11.40
2022-09-01T20:59:08.723Z,11.30
2022-09-01T21:01:55.906Z,11.20
2022-09-01T21:04:53.309Z,11.20
2022-09-01T21:07:31.402Z,11.10
2022-09-01T21:10:21.152Z,11.10
2022-09-01T21:13:03.238Z,11.00
2022-09-01T21:15:59.659Z,11.00
2022-09-01T21:18:43.684Z,11.00
2022-09-01T21:21:32.743Z,10.90
2022-09-01T21:23:59.560Z,11.00
2022-09-01T21:26:26.520Z,10.90
2022-09-01T21:28:57.702Z,10.90
2022-09-01T21:31:24.887Z,10.90
2022-09-01T21:33:51.970Z,10.80
2022-09-01T21:36:19.353Z,10.80
2022-09-01T21:38:46.364Z,10.80
2022-09-01T21:41:14.176Z,10.80
2022-09-01T21:43:44.823Z,10.80
2022-09-01T21:46:14.673Z,10.70
2022-09-01T21:48:41.937Z,10.70
2022-09-01T21:51:09.017Z,10.70
2022-09-01T21:53:36.247Z,10.70
2022-09-01T21:56:03.626Z,10.60
2022-09-01T21:58:30.527Z,10.60
2022-09-01T22:00:58.348Z,10.60
2022-09-01T22:03:25.448Z,10.60
2022-09-01T22:05:52.768Z,10.50
2022-09-01T22:08:19.798Z,10.50
2022-09-01T22:10:49.495Z,10.50
2022-09-01T22:13:16.902Z,10.40
2022-09-01T22:15:46.538Z,10.40
2022-09-01T22:18:15.129Z,10.30
2022-09-01T22:20:42.864Z,10.30
2022-09-01T22:23:15.779Z,10.30
2022-09-01T22:25:45.972Z,10.30
2022-09-01T22:28:13.620Z,10.40
2022-09-01T22:30:45.941Z,10.20
2022-09-01T22:33:13.339Z,10.20
2022-09-01T22:35:46.880Z,10.20
2022-09-01T22:38:14.109Z,10.10
2022-09-01T22:40:56.194Z,10.10
2022-09-01T22:43:24.747Z,10.10
2022-09-01T22:45:57.384Z,10.10
2022-09-01T22:48:27.095Z,10.00
2022-09-01T22:50:57.403Z,10.00
2022-09-01T22:53:26.169Z,10.00
2022-09-01T22:55:53.821Z,10.00
2022-09-01T22:58:21.092Z,10.00
2022-09-01T23:00:51.664Z,9.90
2022-09-01T23:03:21.174Z,9.90
2022-09-01T23:05:49.412Z,9.90
2022-09-01T23:08:17.036Z,9.90
2022-09-01T23:10:46.887Z,9.80
2022-09-01T23:13:13.740Z,9.80
2022-09-01T23:15:41.439Z,9.70
2022-09-01T23:18:08.692Z,9.70
2022-09-01T23:20:38.113Z,9.70
2022-09-01T23:23:05.896Z,9.70
2022-09-01T23:25:32.886Z,9.70
2022-09-01T23:28:03.636Z,9.70
2022-09-01T23:30:30.500Z,9.70
2022-09-01T23:32:57.986Z,9.60
2022-09-01T23:35:25.475Z,9.60
2022-09-01T23:37:52.377Z,9.50
2022-09-01T23:40:20.289Z,9.50
2022-09-01T23:42:47.217Z,9.50
2022-09-01T23:45:17.334Z,9.50
2022-09-01T23:47:47.120Z,9.50
2022-09-01T23:50:14.143Z,9.50
2022-09-01T23:52:41.357Z,9.50
2022-09-01T23:55:11.550Z,9.50
2022-09-01T23:57:39.087Z,9.40
